sensor_id;sensor_type;location;lat;lon;timestamp;temperature;humidity
23497;DHT22;11925;48.122;11.560;2023-06-24T00:00:02;18.70;99.90
23497;DHT22;11925;48.122;11.560;2023-06-24T00:02:36;18.70;99.90
23497;DHT22;11925;48.122;11.560;2023-06-24T00:05:05;18.70;99.90
23497;DHT22;11925;48.122;11.560;2023-06-24T00:07:36;18.70;99.90
23497;DHT22;11925;48.122;11.560;2023-06-24T00:10:11;18.60;99.90
23497;DHT22;11925;48.122;11.560;2023-06-24T00:12:40;18.70;99.90
23497;DHT22;11925;48.122;11.560;2023-06-24T00:15:09;18.60;99.90
23497;DHT22;11925;48.122;11.560;2023-06-24T00:17:39;18.60;99.90
23497;DHT22;11925;48.122;11.560;2023-06-24T00:20:09;18.70;99.90
23497;DHT22;11925;48.122;11.560;2023-06-24T00:22:41;18.60;99.90
23497;DHT22;11925;48.122;11.560;2023-06-24T00:25:11;18.60;99.90
23497;DHT22;11925;48.122;11.560;2023-06-24T00:27:40;18.60;99.90
23497;DHT22;11925;48.122;11.560;2023-06-24T00:30:10;18.60;99.90
23497;DHT22;11925;48.122;11.560;2023-06-24T00:32:40;18.60;99.90
23497;DHT22;11925;48.122;11.560;2023-06-24T00:35:09;18.60;99.90
23497;DHT22;11925;48.122;11.560;2023-06-24T00:37:39;18.60;99.90
23497;DHT22;11925;48.122;11.560;2023-06-24T00:40:09;18.60;99.90
23497;DHT22;11925;48.122;11.560;2023-06-24T00:42:42;18.60;99.90
23497;DHT22;11925;48.122;11.560;2023-06-24T00:45:11;18.60;99.90
23497;DHT22;11925;48.122;11.560;2023-06-24T00:47:41;18.60;99.90
23497;DHT22;11925;48.122;11.560;2023-06-24T00:50:10;18.70;99.90
23497;DHT22;11925;48.122;11.560;2023-06-24T00:52:39;18.60;99.90
23497;DHT22;11925;48.122;11.560;2023-06-24T00:55:11;18.60;99.90
23497;DHT22;11925;48.122;11.560;2023-06-24T00:57:40;18.60;99.90
23497;DHT22;11925;48.122;11.560;2023-06-24T01:00:10;18.60;99.90
23497;DHT22;11925;48.122;11.560;2023-06-24T01:02:43;18.60;99.90
23497;DHT22;11925;48.122;11.560;2023-06-24T01:05:12;18.60;99.90
23497;DHT22;11925;48.122;11.560;2023-06-24T01:07:42;18.60;99.90
23497;DHT22;11925;48.122;11.560;2023-06-24T01:10:12;18.60;99.90
23497;DHT22;11925;48.122;11.560;2023-06-24T01:12:41;18.60;99.90
23497;DHT22;11925;48.122;11.560;2023-06-24T01:15:11;18.60;99.90
23497;DHT22;11925;48.122;11.560;2023-06-24T01:17:48;18.60;99.90
23497;DHT22;11925;48.122;11.560;2023-06-24T01:20:23;18.60;99.90
23497;DHT22;11925;48.122;11.560;2023-06-24T01:23:24;18.50;99.90
23497;DHT22;11925;48.122;11.560;2023-06-24T01:26:10;18.60;99.90
23497;DHT22;11925;48.122;11.560;2023-06-24T01:31:39;18.50;99.90
23497;DHT22;11925;48.122;11.560;2023-06-24T01:34:15;18.60;99.90
23497;DHT22;11925;48.122;11.560;2023-06-24T01:36:51;18.60;99.90
23497;DHT22;11925;48.122;11.560;2023-06-24T01:39:22;18.60;99.90
23497;DHT22;11925;48.122;11.560;2023-06-24T01:41:56;18.50;99.90
23497;DHT22;11925;48.122;11.560;2023-06-24T01:44:28;18.50;99.90
23497;DHT22;11925;48.122;11.560;2023-06-24T01:46:59;18.60;99.90
23497;DHT22;11925;48.122;11.560;2023-06-24T01:49:29;18.60;99.90
23497;DHT22;11925;48.122;11.560;2023-06-24T01:52:01;18.50;99.90
23497;DHT22;11925;48.122;11.560;2023-06-24T01:54:33;18.50;99.90
23497;DHT22;11925;48.122;11.560;2023-06-24T01:57:04;18.50;99.90
23497;DHT22;11925;48.122;11.560;2023-06-24T01:59:34;18.50;99.90
23497;DHT22;11925;48.122;11.560;2023-06-24T02:02:05;18.50;99.90
23497;DHT22;11925;48.122;11.560;2023-06-24T02:04:35;18.50;99.90
23497;DHT22;11925;48.122;11.560;2023-06-24T02:07:04;18.50;99.90
23497;DHT22;11925;48.122;11.560;2023-06-24T02:09:38;18.50;99.90
23497;DHT22;11925;48.122;11.560;2023-06-24T02:12:09;18.50;99.90
23497;DHT22;11925;48.122;11.560;2023-06-24T02:14:38;18.50;99.90
23497;DHT22;11925;48.122;11.560;2023-06-24T02:17:10;18.50;99.90
23497;DHT22;11925;48.122;11.560;2023-06-24T02:19:39;18.50;99.90
23497;DHT22;11925;48.122;11.560;2023-06-24T02:22:09;18.50;99.90
23497;DHT22;11925;48.122;11.560;2023-06-24T02:24:37;18.50;99.90
23497;DHT22;11925;48.122;11.560;2023-06-24T02:27:07;18.40;99.90
23497;DHT22;11925;48.122;11.560;2023-06-24T02:29:36;18.50;99.90
23497;DHT22;11925;48.122;11.560;2023-06-24T02:32:06;18.40;99.90
23497;DHT22;11925;48.122;11.560;2023-06-24T02:34:36;18.40;99.90
23497;DHT22;11925;48.122;11.560;2023-06-24T02:37:05;18.40;99.90
23497;DHT22;11925;48.122;11.560;2023-06-24T02:39:33;18.50;99.90
23497;DHT22;11925;48.122;11.560;2023-06-24T02:42:02;18.40;99.90
23497;DHT22;11925;48.122;11.560;2023-06-24T02:44:31;18.40;99.90
23497;DHT22;11925;48.122;11.560;2023-06-24T02:47:00;18.40;99.90
23497;DHT22;11925;48.122;11.560;2023-06-24T02:49:30;18.40;99.90
23497;DHT22;11925;48.122;11.560;2023-06-24T02:52:00;18.40;99.90
23497;DHT22;11925;48.122;11.560;2023-06-24T02:54:30;18.40;99.90
23497;DHT22;11925;48.122;11.560;2023-06-24T02:57:17;18.40;99.90
23497;DHT22;11925;48.122;11.560;2023-06-24T03:00:10;18.40;99.90
23497;DHT22;11925;48.122;11.560;2023-06-24T03:03:04;18.40;99.90
23497;DHT22;11925;48.122;11.560;2023-06-24T03:05:35;18.40;99.90
23497;DHT22;11925;48.122;11.560;2023-06-24T03:08:07;18.40;99.90
23497;DHT22;11925;48.122;11.560;2023-06-24T03:10:36;18.40;99.90
23497;DHT22;11925;48.122;11.560;2023-06-24T03:13:09;18.40;99.90
23497;DHT22;11925;48.122;11.560;2023-06-24T03:15:43;18.40;99.90
23497;DHT22;11925;48.122;11.560;2023-06-24T03:18:13;18.40;99.90
23497;DHT22;11925;48.122;11.560;2023-06-24T03:20:42;18.40;99.90
23497;DHT22;11925;48.122;11.560;2023-06-24T03:23:16;18.40;99.90
23497;DHT22;11925;48.122;11.560;2023-06-24T03:25:45;18.40;99.90
23497;DHT22;11925;48.122;11.560;2023-06-24T03:28:15;18.40;99.90
23497;DHT22;11925;48.122;11.560;2023-06-24T03:30:52;18.40;99.90
23497;DHT22;11925;48.122;11.560;2023-06-24T03:33:20;18.40;99.90
23497;DHT22;11925;48.122;11.560;2023-06-24T03:35:49;18.40;99.90
23497;DHT22;11925;48.122;11.560;2023-06-24T03:38:23;18.40;99.90
23497;DHT22;11925;48.122;11.560;2023-06-24T03:40:52;18.40;99.90
23497;DHT22;11925;48.122;11.560;2023-06-24T03:43:20;18.40;99.90
23497;DHT22;11925;48.122;11.560;2023-06-24T03:45:49;18.40;99.90
23497;DHT22;11925;48.122;11.560;2023-06-24T03:48:19;18.40;99.90
23497;DHT22;11925;48.122;11.560;2023-06-24T03:50:47;18.40;99.90
23497;DHT22;11925;48.122;11.560;2023-06-24T03:53:16;18.40;99.90
23497;DHT22;11925;48.122;11.560;2023-06-24T03:55:45;18.40;99.90
23497;DHT22;11925;48.122;11.560;2023-06-24T03:58:15;18.40;99.90
23497;DHT22;11925;48.122;11.560;2023-06-24T04:00:44;18.40;99.90
23497;DHT22;11925;48.122;11.560;2023-06-24T04:03:13;18.40;99.90
23497;DHT22;11925;48.122;11.560;2023-06-24T04:05:42;18.40;99.90
23497;DHT22;11925;48.122;11.560;2023-06-24T04:08:10;18.40;99.90
23497;DHT22;11925;48.122;11.560;2023-06-24T04:10:38;18.40;99.90
23497;DHT22;11925;48.122;11.560;2023-06-24T04:13:13;18.40;99.90
23497;DHT22;11925;48.122;11.560;2023-06-24T04:15:41;18.40;99.90
23497;DHT22;11925;48.122;11.560;2023-06-24T04:18:10;18.40;99.90
23497;DHT22;11925;48.122;11.560;2023-06-24T04:20:38;18.40;99.90
23497;DHT22;11925;48.122;11.560;2023-06-24T04:23:07;18.40;99.90
23497;DHT22;11925;48.122;11.560;2023-06-24T04:25:37;18.40;99.90
23497;DHT22;11925;48.122;11.560;2023-06-24T04:28:06;18.40;99.90
23497;DHT22;11925;48.122;11.560;2023-06-24T04:30:36;18.40;99.90
23497;DHT22;11925;48.122;11.560;2023-06-24T04:33:07;18.40;99.90
23497;DHT22;11925;48.122;11.560;2023-06-24T04:35:35;18.40;99.90
23497;DHT22;11925;48.122;11.560;2023-06-24T04:38:04;18.40;99.90
23497;DHT22;11925;48.122;11.560;2023-06-24T04:40:33;18.40;99.90
23497;DHT22;11925;48.122;11.560;2023-06-24T04:43:01;18.40;99.90
23497;DHT22;11925;48.122;11.560;2023-06-24T04:45:30;18.40;99.90
23497;DHT22;11925;48.122;11.560;2023-06-24T04:47:59;18.40;99.90
23497;DHT22;11925;48.122;11.560;2023-06-24T04:50:28;18.40;99.90
23497;DHT22;11925;48.122;11.560;2023-06-24T04:52:57;18.40;99.90
23497;DHT22;11925;48.122;11.560;2023-06-24T04:55:25;18.40;99.90
23497;DHT22;11925;48.122;11.560;2023-06-24T04:57:53;18.40;99.90
23497;DHT22;11925;48.122;11.560;2023-06-24T05:00:22;18.40;99.90
23497;DHT22;11925;48.122;11.560;2023-06-24T05:02:51;18.40;99.90
23497;DHT22;11925;48.122;11.560;2023-06-24T05:05:21;18.30;99.90
23497;DHT22;11925;48.122;11.560;2023-06-24T05:07:50;18.40;99.90
23497;DHT22;11925;48.122;11.560;2023-06-24T05:10:18;18.40;99.90
23497;DHT22;11925;48.122;11.560;2023-06-24T05:12:47;18.40;99.90
23497;DHT22;11925;48.122;11.560;2023-06-24T05:15:15;18.40;99.90
23497;DHT22;11925;48.122;11.560;2023-06-24T05:17:43;18.40;99.90
23497;DHT22;11925;48.122;11.560;2023-06-24T05:20:12;18.40;99.90
23497;DHT22;11925;48.122;11.560;2023-06-24T05:22:42;18.40;99.90
23497;DHT22;11925;48.122;11.560;2023-06-24T05:25:10;18.40;99.90
23497;DHT22;11925;48.122;11.560;2023-06-24T05:27:38;18.40;99.90
23497;DHT22;11925;48.122;11.560;2023-06-24T05:30:08;18.40;99.90
23497;DHT22;11925;48.122;11.560;2023-06-24T05:32:36;18.40;99.90
23497;DHT22;11925;48.122;11.560;2023-06-24T05:35:05;18.40;99.90
23497;DHT22;11925;48.122;11.560;2023-06-24T05:37:34;18.40;99.90
23497;DHT22;11925;48.122;11.560;2023-06-24T05:40:05;18.40;99.90
23497;DHT22;11925;48.122;11.560;2023-06-24T05:42:34;18.40;99.90
23497;DHT22;11925;48.122;11.560;2023-06-24T05:45:03;18.40;99.90
23497;DHT22;11925;48.122;11.560;2023-06-24T05:47:31;18.40;99.90
23497;DHT22;11925;48.122;11.560;2023-06-24T05:50:00;18.40;99.90
23497;DHT22;11925;48.122;11.560;2023-06-24T05:52:28;18.40;99.90
23497;DHT22;11925;48.122;11.560;2023-06-24T05:54:57;18.40;99.90
23497;DHT22;11925;48.122;11.560;2023-06-24T05:57:26;18.40;99.90
23497;DHT22;11925;48.122;11.560;2023-06-24T05:59:55;18.40;99.90
23497;DHT22;11925;48.122;11.560;2023-06-24T06:02:23;18.40;99.90
23497;DHT22;11925;48.122;11.560;2023-06-24T06:04:51;18.40;99.90
23497;DHT22;11925;48.122;11.560;2023-06-24T06:07:20;18.40;99.90
23497;DHT22;11925;48.122;11.560;2023-06-24T06:09:48;18.40;99.90
23497;DHT22;11925;48.122;11.560;2023-06-24T06:12:16;18.40;99.90
23497;DHT22;11925;48.122;11.560;2023-06-24T06:14:46;18.40;99.90
23497;DHT22;11925;48.122;11.560;2023-06-24T06:17:14;18.40;99.90
23497;DHT22;11925;48.122;11.560;2023-06-24T06:19:43;18.40;99.90
23497;DHT22;11925;48.122;11.560;2023-06-24T06:22:16;18.40;99.90
23497;DHT22;11925;48.122;11.560;2023-06-24T06:24:45;18.40;99.90
23497;DHT22;11925;48.122;11.560;2023-06-24T06:27:13;18.40;99.90
23497;DHT22;11925;48.122;11.560;2023-06-24T06:29:41;18.50;99.90
23497;DHT22;11925;48.122;11.560;2023-06-24T06:32:11;18.40;99.90
23497;DHT22;11925;48.122;11.560;2023-06-24T06:34:39;18.50;99.90
23497;DHT22;11925;48.122;11.560;2023-06-24T06:37:09;18.50;99.90
23497;DHT22;11925;48.122;11.560;2023-06-24T06:39:37;18.50;99.90
23497;DHT22;11925;48.122;11.560;2023-06-24T06:42:06;18.60;99.90
23497;DHT22;11925;48.122;11.560;2023-06-24T06:44:34;18.50;99.90
23497;DHT22;11925;48.122;11.560;2023-06-24T06:47:03;18.50;99.90
23497;DHT22;11925;48.122;11.560;2023-06-24T06:49:33;18.50;99.90
23497;DHT22;11925;48.122;11.560;2023-06-24T06:52:01;18.50;99.90
23497;DHT22;11925;48.122;11.560;2023-06-24T06:54:30;18.50;99.90
23497;DHT22;11925;48.122;11.560;2023-06-24T06:57:00;18.60;99.90
23497;DHT22;11925;48.122;11.560;2023-06-24T06:59:29;18.60;99.90
23497;DHT22;11925;48.122;11.560;2023-06-24T07:01:57;18.60;99.90
23497;DHT22;11925;48.122;11.560;2023-06-24T07:04:25;18.60;99.90
23497;DHT22;11925;48.122;11.560;2023-06-24T07:06:55;18.60;99.90
23497;DHT22;11925;48.122;11.560;2023-06-24T07:09:23;18.60;99.90
23497;DHT22;11925;48.122;11.560;2023-06-24T07:11:52;18.60;99.90
23497;DHT22;11925;48.122;11.560;2023-06-24T07:14:20;18.70;99.90
23497;DHT22;11925;48.122;11.560;2023-06-24T07:16:48;18.70;99.90
23497;DHT22;11925;48.122;11.560;2023-06-24T07:19:17;18.70;99.90
23497;DHT22;11925;48.122;11.560;2023-06-24T07:21:46;18.70;99.90
23497;DHT22;11925;48.122;11.560;2023-06-24T07:24:15;18.70;99.90
23497;DHT22;11925;48.122;11.560;2023-06-24T07:26:44;18.70;99.90
23497;DHT22;11925;48.122;11.560;2023-06-24T07:29:12;18.60;99.90
23497;DHT22;11925;48.122;11.560;2023-06-24T07:31:41;18.60;99.90
23497;DHT22;11925;48.122;11.560;2023-06-24T07:34:09;18.70;99.50
23497;DHT22;11925;48.122;11.560;2023-06-24T07:39:06;18.70;99.90
23497;DHT22;11925;48.122;11.560;2023-06-24T07:41:36;18.70;99.90
23497;DHT22;11925;48.122;11.560;2023-06-24T07:44:05;18.70;99.90
23497;DHT22;11925;48.122;11.560;2023-06-24T07:46:33;18.70;99.80
23497;DHT22;11925;48.122;11.560;2023-06-24T07:49:01;18.80;99.90
23497;DHT22;11925;48.122;11.560;2023-06-24T07:51:30;18.80;99.90
23497;DHT22;11925;48.122;11.560;2023-06-24T07:53:58;18.70;99.90
23497;DHT22;11925;48.122;11.560;2023-06-24T07:56:26;18.70;99.90
23497;DHT22;11925;48.122;11.560;2023-06-24T07:58:56;18.70;99.90
23497;DHT22;11925;48.122;11.560;2023-06-24T08:01:25;18.70;99.90
23497;DHT22;11925;48.122;11.560;2023-06-24T08:03:54;18.80;99.90
23497;DHT22;11925;48.122;11.560;2023-06-24T08:06:23;18.70;99.90
23497;DHT22;11925;48.122;11.560;2023-06-24T08:08:51;18.70;99.90
23497;DHT22;11925;48.122;11.560;2023-06-24T08:11:19;18.70;99.90
23497;DHT22;11925;48.122;11.560;2023-06-24T08:13:48;18.80;99.90
23497;DHT22;11925;48.122;11.560;2023-06-24T08:16:18;18.70;99.90
23497;DHT22;11925;48.122;11.560;2023-06-24T08:18:47;18.70;99.90
23497;DHT22;11925;48.122;11.560;2023-06-24T08:21:16;18.80;99.90
23497;DHT22;11925;48.122;11.560;2023-06-24T08:23:45;18.80;99.90
23497;DHT22;11925;48.122;11.560;2023-06-24T08:26:13;18.80;99.90
23497;DHT22;11925;48.122;11.560;2023-06-24T08:28:45;18.80;99.90
23497;DHT22;11925;48.122;11.560;2023-06-24T08:31:13;18.80;99.90
23497;DHT22;11925;48.122;11.560;2023-06-24T08:33:44;18.80;99.90
23497;DHT22;11925;48.122;11.560;2023-06-24T08:36:13;18.80;99.90
23497;DHT22;11925;48.122;11.560;2023-06-24T08:38:42;18.80;99.90
23497;DHT22;11925;48.122;11.560;2023-06-24T08:41:10;18.80;99.90
23497;DHT22;11925;48.122;11.560;2023-06-24T08:43:38;18.80;99.90
23497;DHT22;11925;48.122;11.560;2023-06-24T08:46:07;18.80;99.90
23497;DHT22;11925;48.122;11.560;2023-06-24T08:48:39;18.80;99.90
23497;DHT22;11925;48.122;11.560;2023-06-24T08:51:15;18.80;99.90
23497;DHT22;11925;48.122;11.560;2023-06-24T08:53:47;18.80;99.90
23497;DHT22;11925;48.122;11.560;2023-06-24T08:56:16;18.80;99.90
23497;DHT22;11925;48.122;11.560;2023-06-24T08:58:45;18.80;99.90
23497;DHT22;11925;48.122;11.560;2023-06-24T09:01:13;18.80;99.90
23497;DHT22;11925;48.122;11.560;2023-06-24T09:03:42;18.80;99.90
23497;DHT22;11925;48.122;11.560;2023-06-24T09:06:12;18.80;99.90
23497;DHT22;11925;48.122;11.560;2023-06-24T09:08:40;18.80;99.90
23497;DHT22;11925;48.122;11.560;2023-06-24T09:11:08;18.80;99.90
23497;DHT22;11925;48.122;11.560;2023-06-24T09:13:37;18.80;99.90
23497;DHT22;11925;48.122;11.560;2023-06-24T09:16:12;18.80;99.90
23497;DHT22;11925;48.122;11.560;2023-06-24T09:18:42;18.80;99.90
23497;DHT22;11925;48.122;11.560;2023-06-24T09:21:21;18.80;99.90
23497;DHT22;11925;48.122;11.560;2023-06-24T09:23:53;18.80;99.90
23497;DHT22;11925;48.122;11.560;2023-06-24T09:26:22;18.80;99.90
23497;DHT22;11925;48.122;11.560;2023-06-24T09:28:51;18.80;99.90
23497;DHT22;11925;48.122;11.560;2023-06-24T09:31:20;18.80;99.90
23497;DHT22;11925;48.122;11.560;2023-06-24T09:33:50;19.00;99.90
23497;DHT22;11925;48.122;11.560;2023-06-24T09:36:20;18.70;99.90
23497;DHT22;11925;48.122;11.560;2023-06-24T09:38:48;18.80;99.90
23497;DHT22;11925;48.122;11.560;2023-06-24T09:41:17;18.70;99.90
23497;DHT22;11925;48.122;11.560;2023-06-24T09:43:45;18.70;99.90
23497;DHT22;11925;48.122;11.560;2023-06-24T09:46:14;18.80;99.90
23497;DHT22;11925;48.122;11.560;2023-06-24T09:48:46;18.80;99.90
23497;DHT22;11925;48.122;11.560;2023-06-24T09:51:16;18.80;99.90
23497;DHT22;11925;48.122;11.560;2023-06-24T09:53:47;18.80;99.90
23497;DHT22;11925;48.122;11.560;2023-06-24T09:56:16;18.80;99.90
23497;DHT22;11925;48.122;11.560;2023-06-24T09:58:46;18.80;99.90
23497;DHT22;11925;48.122;11.560;2023-06-24T10:01:16;18.80;99.90
23497;DHT22;11925;48.122;11.560;2023-06-24T10:03:44;18.80;99.90
23497;DHT22;11925;48.122;11.560;2023-06-24T10:06:13;18.70;99.90
23497;DHT22;11925;48.122;11.560;2023-06-24T10:08:42;18.70;99.90
23497;DHT22;11925;48.122;11.560;2023-06-24T10:11:12;18.70;99.90
23497;DHT22;11925;48.122;11.560;2023-06-24T10:13:40;18.80;99.90
23497;DHT22;11925;48.122;11.560;2023-06-24T10:16:08;18.80;99.90
23497;DHT22;11925;48.122;11.560;2023-06-24T10:18:38;18.80;99.90
23497;DHT22;11925;48.122;11.560;2023-06-24T10:21:09;18.80;99.90
23497;DHT22;11925;48.122;11.560;2023-06-24T10:23:41;18.80;99.90
23497;DHT22;11925;48.122;11.560;2023-06-24T10:26:23;18.80;99.90
23497;DHT22;11925;48.122;11.560;2023-06-24T10:29:11;18.80;99.90
23497;DHT22;11925;48.122;11.560;2023-06-24T10:31:54;18.90;99.90
23497;DHT22;11925;48.122;11.560;2023-06-24T10:34:33;18.90;99.90
23497;DHT22;11925;48.122;11.560;2023-06-24T10:37:03;18.90;99.90
23497;DHT22;11925;48.122;11.560;2023-06-24T10:39:39;18.80;99.90
23497;DHT22;11925;48.122;11.560;2023-06-24T10:42:35;18.80;99.90
23497;DHT22;11925;48.122;11.560;2023-06-24T10:45:18;18.80;99.90
23497;DHT22;11925;48.122;11.560;2023-06-24T10:47:48;18.80;99.90
23497;DHT22;11925;48.122;11.560;2023-06-24T10:50:20;18.80;99.90
23497;DHT22;11925;48.122;11.560;2023-06-24T10:52:52;18.80;99.90
23497;DHT22;11925;48.122;11.560;2023-06-24T10:55:23;18.80;99.90
23497;DHT22;11925;48.122;11.560;2023-06-24T10:57:54;18.80;99.90
23497;DHT22;11925;48.122;11.560;2023-06-24T11:00:22;18.80;99.90
23497;DHT22;11925;48.122;11.560;2023-06-24T11:02:51;18.80;99.90
23497;DHT22;11925;48.122;11.560;2023-06-24T11:05:19;18.80;99.90
23497;DHT22;11925;48.122;11.560;2023-06-24T11:07:48;18.80;99.90
23497;DHT22;11925;48.122;11.560;2023-06-24T11:10:17;18.80;99.90
23497;DHT22;11925;48.122;11.560;2023-06-24T11:12:45;18.80;99.90
23497;DHT22;11925;48.122;11.560;2023-06-24T11:15:16;18.90;99.90
23497;DHT22;11925;48.122;11.560;2023-06-24T11:17:46;18.80;99.90
23497;DHT22;11925;48.122;11.560;2023-06-24T11:20:18;18.80;99.90
23497;DHT22;11925;48.122;11.560;2023-06-24T11:22:47;18.90;99.90
23497;DHT22;11925;48.122;11.560;2023-06-24T11:25:15;18.80;99.90
23497;DHT22;11925;48.122;11.560;2023-06-24T11:27:44;18.80;99.90
23497;DHT22;11925;48.122;11.560;2023-06-24T14:07:37;19.00;99.90
23497;DHT22;11925;48.122;11.560;2023-06-24T14:10:06;19.00;99.90
23497;DHT22;11925;48.122;11.560;2023-06-24T14:12:35;18.80;99.90
23497;DHT22;11925;48.122;11.560;2023-06-24T14:15:05;18.80;99.90
23497;DHT22;11925;48.122;11.560;2023-06-24T14:17:33;18.80;99.90
23497;DHT22;11925;48.122;11.560;2023-06-24T14:20:04;18.80;99.90
23497;DHT22;11925;48.122;11.560;2023-06-24T14:22:33;18.90;99.90
23497;DHT22;11925;48.122;11.560;2023-06-24T14:25:01;18.80;99.90
23497;DHT22;11925;48.122;11.560;2023-06-24T14:27:29;18.90;99.90
23497;DHT22;11925;48.122;11.560;2023-06-24T14:29:58;18.90;99.90
23497;DHT22;11925;48.122;11.560;2023-06-24T14:32:26;18.90;99.90
23497;DHT22;11925;48.122;11.560;2023-06-24T14:34:55;18.90;99.90
23497;DHT22;11925;48.122;11.560;2023-06-24T14:37:24;18.90;99.90
23497;DHT22;11925;48.122;11.560;2023-06-24T14:39:53;18.90;99.90
23497;DHT22;11925;48.122;11.560;2023-06-24T14:42:21;18.80;99.90
23497;DHT22;11925;48.122;11.560;2023-06-24T14:44:50;18.80;99.90
23497;DHT22;11925;48.122;11.560;2023-06-24T14:47:18;18.80;99.90
23497;DHT22;11925;48.122;11.560;2023-06-24T14:49:47;18.90;99.90
23497;DHT22;11925;48.122;11.560;2023-06-24T14:52:15;18.90;99.90
23497;DHT22;11925;48.122;11.560;2023-06-24T14:54:46;18.80;99.90
23497;DHT22;11925;48.122;11.560;2023-06-24T14:57:15;18.80;99.90
23497;DHT22;11925;48.122;11.560;2023-06-24T14:59:44;18.80;99.90
23497;DHT22;11925;48.122;11.560;2023-06-24T15:02:12;18.90;99.90
23497;DHT22;11925;48.122;11.560;2023-06-24T15:04:40;18.90;99.90
23497;DHT22;11925;48.122;11.560;2023-06-24T15:07:10;18.90;99.90
23497;DHT22;11925;48.122;11.560;2023-06-24T15:09:38;18.90;99.90
23497;DHT22;11925;48.122;11.560;2023-06-24T15:12:09;18.90;99.90
23497;DHT22;11925;48.122;11.560;2023-06-24T15:14:37;18.90;99.90
23497;DHT22;11925;48.122;11.560;2023-06-24T15:17:05;18.90;99.90
23497;DHT22;11925;48.122;11.560;2023-06-24T15:19:34;18.90;99.90
23497;DHT22;11925;48.122;11.560;2023-06-24T15:22:03;18.80;99.90
23497;DHT22;11925;48.122;11.560;2023-06-24T15:24:31;18.80;99.90
23497;DHT22;11925;48.122;11.560;2023-06-24T15:26:59;18.80;99.90
23497;DHT22;11925;48.122;11.560;2023-06-24T15:29:29;18.80;99.90
23497;DHT22;11925;48.122;11.560;2023-06-24T15:32:01;18.80;99.90
23497;DHT22;11925;48.122;11.560;2023-06-24T15:34:29;18.80;99.90
23497;DHT22;11925;48.122;11.560;2023-06-24T15:36:58;18.80;99.90
23497;DHT22;11925;48.122;11.560;2023-06-24T15:39:26;18.80;99.90
23497;DHT22;11925;48.122;11.560;2023-06-24T15:41:54;18.80;99.90
23497;DHT22;11925;48.122;11.560;2023-06-24T15:44:23;18.80;99.90
23497;DHT22;11925;48.122;11.560;2023-06-24T15:46:52;18.80;99.90
23497;DHT22;11925;48.122;11.560;2023-06-24T15:49:21;18.80;99.90
23497;DHT22;11925;48.122;11.560;2023-06-24T15:51:50;18.80;99.90
23497;DHT22;11925;48.122;11.560;2023-06-24T15:54:18;18.90;99.90
23497;DHT22;11925;48.122;11.560;2023-06-24T15:56:46;18.90;99.90
23497;DHT22;11925;48.122;11.560;2023-06-24T15:59:15;18.90;99.90
23497;DHT22;11925;48.122;11.560;2023-06-24T16:01:43;18.90;99.90
23497;DHT22;11925;48.122;11.560;2023-06-24T16:04:13;18.80;99.90
23497;DHT22;11925;48.122;11.560;2023-06-24T16:06:41;18.80;99.90
23497;DHT22;11925;48.122;11.560;2023-06-24T16:09:10;18.90;99.90
23497;DHT22;11925;48.122;11.560;2023-06-24T16:11:39;18.90;99.90
23497;DHT22;11925;48.122;11.560;2023-06-24T16:14:07;18.80;99.90
23497;DHT22;11925;48.122;11.560;2023-06-24T16:16:36;18.80;99.90
23497;DHT22;11925;48.122;11.560;2023-06-24T16:19:04;18.80;99.90
23497;DHT22;11925;48.122;11.560;2023-06-24T16:21:34;18.90;99.90
23497;DHT22;11925;48.122;11.560;2023-06-24T16:24:02;18.80;99.90
23497;DHT22;11925;48.122;11.560;2023-06-24T16:26:31;18.80;99.90
23497;DHT22;11925;48.122;11.560;2023-06-24T16:29:17;18.90;99.90
23497;DHT22;11925;48.122;11.560;2023-06-24T16:31:45;18.80;99.90
23497;DHT22;11925;48.122;11.560;2023-06-24T16:34:14;18.80;99.90
23497;DHT22;11925;48.122;11.560;2023-06-24T16:36:47;18.80;99.90
23497;DHT22;11925;48.122;11.560;2023-06-24T16:39:16;18.90;99.90
23497;DHT22;11925;48.122;11.560;2023-06-24T16:41:45;18.90;99.90
23497;DHT22;11925;48.122;11.560;2023-06-24T16:44:14;18.80;99.90
23497;DHT22;11925;48.122;11.560;2023-06-24T16:46:42;18.90;99.90
23497;DHT22;11925;48.122;11.560;2023-06-24T16:49:10;18.90;99.90
23497;DHT22;11925;48.122;11.560;2023-06-24T16:51:39;18.80;99.90
23497;DHT22;11925;48.122;11.560;2023-06-24T16:54:09;18.90;99.90
23497;DHT22;11925;48.122;11.560;2023-06-24T16:56:38;18.80;99.90
23497;DHT22;11925;48.122;11.560;2023-06-24T16:59:06;18.80;99.90
23497;DHT22;11925;48.122;11.560;2023-06-24T17:01:34;18.90;99.90
23497;DHT22;11925;48.122;11.560;2023-06-24T17:04:03;18.80;99.90
23497;DHT22;11925;48.122;11.560;2023-06-24T17:06:31;18.80;99.90
23497;DHT22;11925;48.122;11.560;2023-06-24T17:09:00;18.80;99.90
23497;DHT22;11925;48.122;11.560;2023-06-24T17:11:30;18.80;99.90
23497;DHT22;11925;48.122;11.560;2023-06-24T17:13:58;18.80;99.90
23497;DHT22;11925;48.122;11.560;2023-06-24T17:16:26;18.90;99.90
23497;DHT22;11925;48.122;11.560;2023-06-24T17:18:55;18.80;99.90
23497;DHT22;11925;48.122;11.560;2023-06-24T17:21:23;18.90;99.90
23497;DHT22;11925;48.122;11.560;2023-06-24T17:23:54;18.80;99.90
23497;DHT22;11925;48.122;11.560;2023-06-24T17:26:32;18.90;99.90
23497;DHT22;11925;48.122;11.560;2023-06-24T17:29:04;18.90;99.90
23497;DHT22;11925;48.122;11.560;2023-06-24T17:31:36;19.00;99.90
23497;DHT22;11925;48.122;11.560;2023-06-24T17:34:07;19.00;99.90
23497;DHT22;11925;48.122;11.560;2023-06-24T17:36:36;19.00;99.90
23497;DHT22;11925;48.122;11.560;2023-06-24T17:39:04;19.00;99.90
23497;DHT22;11925;48.122;11.560;2023-06-24T17:41:34;19.00;99.90
23497;DHT22;11925;48.122;11.560;2023-06-24T17:44:02;19.00;99.90
23497;DHT22;11925;48.122;11.560;2023-06-24T17:46:31;19.00;99.90
23497;DHT22;11925;48.122;11.560;2023-06-24T17:48:59;19.00;99.90
23497;DHT22;11925;48.122;11.560;2023-06-24T17:51:29;19.00;99.90
23497;DHT22;11925;48.122;11.560;2023-06-24T17:54:00;19.00;99.90
23497;DHT22;11925;48.122;11.560;2023-06-24T17:56:28;19.00;99.90
23497;DHT22;11925;48.122;11.560;2023-06-24T17:58:58;19.00;99.90
23497;DHT22;11925;48.122;11.560;2023-06-24T18:01:27;19.00;99.90
23497;DHT22;11925;48.122;11.560;2023-06-24T18:03:56;19.00;99.90
23497;DHT22;11925;48.122;11.560;2023-06-24T18:06:25;19.10;99.90
23497;DHT22;11925;48.122;11.560;2023-06-24T18:08:54;19.00;99.90
23497;DHT22;11925;48.122;11.560;2023-06-24T18:11:22;19.00;99.90
23497;DHT22;11925;48.122;11.560;2023-06-24T18:13:50;19.00;99.90